Time;durP1;ratioP1;P1;durP2;ratioP2;P2;SDS_P1;SDS_P2;PMS_P1;PMS_P2;Temp;Humidity;BMP_temperature;BMP_pressure;BME280_temperature;BME280_humidity;BME280_pressure;Samples;Min_cycle;Max_cycle;Signal;HPM_P1;HPM_P2
2023/11/26 00:01:42;;;;;;;18.50;14.13;;;;;;;;;;5050527;28;20241;-78
2023/11/26 00:04:09;;;;;;;21.47;14.00;;;;;;;;;;5051271;28;20746;-77
2023/11/26 00:06:36;;;;;;;19.17;13.53;;;;;;;;;;5051173;28;20208;-77
2023/11/26 00:09:04;;;;;;;18.53;13.73;;;;;;;;;;5051503;28;20231;-77
2023/11/26 00:11:31;;;;;;;19.60;13.47;;;;;;;;;;5050508;28;20195;-78
2023/11/26 00:13:58;;;;;;;21.63;13.90;;;;;;;;;;5051518;28;20228;-76
2023/11/26 00:16:25;;;;;;;16.53;13.27;;;;;;;;;;5050533;28;20256;-77
2023/11/26 00:18:54;;;;;;;18.60;13.07;;;;;;;;;;5050790;28;20234;-77
2023/11/26 00:21:21;;;;;;;19.77;14.23;;;;;;;;;;5051237;28;20618;-77
2023/11/26 00:23:48;;;;;;;20.03;13.77;;;;;;;;;;5055038;28;20202;-77
2023/11/26 00:26:16;;;;;;;21.17;14.10;;;;;;;;;;5055043;28;20231;-76
2023/11/26 00:28:43;;;;;;;20.10;14.93;;;;;;;;;;5054747;28;20199;-78
2023/11/26 00:31:11;;;;;;;24.50;14.80;;;;;;;;;;5054495;28;20687;-79
2023/11/26 00:33:38;;;;;;;21.47;15.17;;;;;;;;;;5055130;28;20235;-79
2023/11/26 00:36:07;;;;;;;22.63;15.53;;;;;;;;;;5071156;28;20287;-79
2023/11/26 00:38:34;;;;;;;21.77;15.30;;;;;;;;;;5074331;28;20218;-78
2023/11/26 00:41:01;;;;;;;20.70;15.43;;;;;;;;;;5074841;28;20208;-79
2023/11/26 00:43:29;;;;;;;24.73;15.50;;;;;;;;;;5074353;28;20692;-79
2023/11/26 00:45:56;;;;;;;22.57;14.50;;;;;;;;;;5073974;28;20202;-78
2023/11/26 00:48:23;;;;;;;23.10;15.57;;;;;;;;;;5074510;28;20234;-79
2023/11/26 00:50:50;;;;;;;23.43;15.43;;;;;;;;;;5074030;28;20264;-77
2023/11/26 00:53:19;;;;;;;25.30;15.57;;;;;;;;;;5074109;28;20312;-77
2023/11/26 00:55:47;;;;;;;23.33;15.13;;;;;;;;;;5074552;28;20191;-77
2023/11/26 00:58:14;;;;;;;20.83;14.43;;;;;;;;;;5074245;28;20283;-76
2023/11/26 01:00:41;;;;;;;21.60;15.10;;;;;;;;;;5073758;28;20791;-76
2023/11/26 01:03:08;;;;;;;19.57;14.30;;;;;;;;;;5074567;28;20653;-77
2023/11/26 01:05:36;;;;;;;18.77;14.33;;;;;;;;;;5074146;28;20250;-77
2023/11/26 01:08:03;;;;;;;22.90;14.87;;;;;;;;;;5074129;28;20209;-79
2023/11/26 01:10:32;;;;;;;24.30;14.53;;;;;;;;;;5073975;28;20236;-78
2023/11/26 01:12:59;;;;;;;20.90;14.17;;;;;;;;;;5074344;28;20255;-77
2023/11/26 01:15:25;;;;;;;20.70;13.50;;;;;;;;;;5073594;28;20202;-78
2023/11/26 01:17:52;;;;;;;19.90;14.10;;;;;;;;;;5074163;28;20201;-77
2023/11/26 01:20:19;;;;;;;23.40;14.23;;;;;;;;;;5073753;28;20219;-78
2023/11/26 01:22:47;;;;;;;23.37;15.37;;;;;;;;;;5073996;28;20293;-78
2023/11/26 01:25:14;;;;;;;22.47;15.57;;;;;;;;;;5074020;28;20204;-78
2023/11/26 01:27:42;;;;;;;20.60;15.53;;;;;;;;;;5073784;28;20203;-78
2023/11/26 01:30:10;;;;;;;22.40;15.20;;;;;;;;;;5074080;28;20232;-78
2023/11/26 01:32:36;;;;;;;20.93;14.33;;;;;;;;;;5073307;28;20587;-78
2023/11/26 01:35:04;;;;;;;20.47;13.97;;;;;;;;;;5073672;28;20275;-78
2023/11/26 01:37:31;;;;;;;20.73;13.23;;;;;;;;;;5073164;28;20198;-79
2023/11/26 01:39:58;;;;;;;22.07;14.63;;;;;;;;;;5074143;28;20200;-78
2023/11/26 01:42:26;;;;;;;23.67;15.93;;;;;;;;;;5073436;28;20730;-78
2023/11/26 01:44:54;;;;;;;28.73;18.97;;;;;;;;;;5073309;28;20201;-78
2023/11/26 01:47:22;;;;;;;26.40;19.70;;;;;;;;;;5073468;28;20230;-78
2023/11/26 01:49:49;;;;;;;26.30;20.50;;;;;;;;;;5073452;28;20291;-77
2023/11/26 01:52:16;;;;;;;28.43;21.00;;;;;;;;;;5073213;28;20189;-79
2023/11/26 01:54:44;;;;;;;27.07;20.10;;;;;;;;;;5073211;28;20230;-79
2023/11/26 01:57:12;;;;;;;26.47;17.47;;;;;;;;;;5073166;28;20199;-76
2023/11/26 01:59:40;;;;;;;23.90;16.70;;;;;;;;;;5072910;28;20322;-78
2023/11/26 02:02:09;;;;;;;21.33;15.53;;;;;;;;;;5073171;28;20220;-78
2023/11/26 02:04:37;;;;;;;21.83;15.17;;;;;;;;;;5073141;28;20242;-78
2023/11/26 02:07:05;;;;;;;19.87;14.80;;;;;;;;;;5073333;28;20204;-78
2023/11/26 02:09:32;;;;;;;21.80;14.53;;;;;;;;;;5073044;28;20295;-78
2023/11/26 02:12:00;;;;;;;22.93;14.40;;;;;;;;;;5072692;28;20195;-79
2023/11/26 02:14:27;;;;;;;20.63;13.93;;;;;;;;;;5072977;28;20604;-78
2023/11/26 02:16:54;;;;;;;19.43;13.93;;;;;;;;;;5072961;28;20205;-77
2023/11/26 02:19:27;;;;;;;21.33;14.63;;;;;;;;;;5073039;28;20223;-78
2023/11/26 02:21:54;;;;;;;22.07;15.63;;;;;;;;;;5072618;28;20282;-77
2023/11/26 02:24:26;;;;;;;21.87;15.40;;;;;;;;;;5072357;28;20227;-78
2023/11/26 02:26:55;;;;;;;21.50;15.40;;;;;;;;;;5072222;28;20259;-78
2023/11/26 02:29:22;;;;;;;22.37;14.87;;;;;;;;;;5073022;28;20199;-79
2023/11/26 02:31:50;;;;;;;19.67;13.97;;;;;;;;;;5072739;28;20569;-78
2023/11/26 02:34:17;;;;;;;21.10;13.70;;;;;;;;;;5072585;28;20319;-78
2023/11/26 02:36:44;;;;;;;19.67;12.90;;;;;;;;;;5072455;28;20196;-78
2023/11/26 02:39:12;;;;;;;18.67;12.77;;;;;;;;;;5072230;28;20581;-78
2023/11/26 02:41:41;;;;;;;21.63;13.47;;;;;;;;;;5071914;28;20290;-79
2023/11/26 02:44:09;;;;;;;18.27;12.97;;;;;;;;;;5071846;28;20196;-78
2023/11/26 02:46:36;;;;;;;19.60;12.70;;;;;;;;;;5071897;28;20231;-78
2023/11/26 02:49:04;;;;;;;17.67;13.10;;;;;;;;;;5072320;28;20200;-78
2023/11/26 02:51:32;;;;;;;19.27;12.70;;;;;;;;;;5072638;28;20290;-78
2023/11/26 02:53:59;;;;;;;17.33;12.70;;;;;;;;;;5072467;28;20250;-78
2023/11/26 02:56:26;;;;;;;17.67;12.13;;;;;;;;;;5072112;28;20231;-77
2023/11/26 02:58:54;;;;;;;19.53;13.13;;;;;;;;;;5071926;28;20226;-77
2023/11/26 03:01:25;;;;;;;18.43;12.67;;;;;;;;;;5071738;28;20295;-77
2023/11/26 03:03:52;;;;;;;18.93;13.20;;;;;;;;;;5072103;28;20248;-77
2023/11/26 03:06:23;;;;;;;18.03;12.97;;;;;;;;;;5072081;28;20206;-78
2023/11/26 03:08:59;;;;;;;18.43;12.93;;;;;;;;;;5072071;28;20247;-76
2023/11/26 03:14:13;;;;;;;18.53;12.63;;;;;;;;;;5071724;28;20229;-76
2023/11/26 03:16:44;;;;;;;19.47;13.00;;;;;;;;;;5071723;28;20282;-77
2023/11/26 03:19:12;;;;;;;19.20;12.47;;;;;;;;;;5063290;28;20205;-77
2023/11/26 03:21:39;;;;;;;19.70;13.07;;;;;;;;;;5066805;28;20294;-78
2023/11/26 03:24:07;;;;;;;19.80;13.03;;;;;;;;;;5071785;28;20293;-76
2023/11/26 03:26:36;;;;;;;18.23;13.20;;;;;;;;;;5071243;28;20204;-77
2023/11/26 03:29:04;;;;;;;19.83;13.67;;;;;;;;;;5071705;28;20196;-76
2023/11/26 03:31:33;;;;;;;20.07;13.57;;;;;;;;;;5071717;28;20196;-77
2023/11/26 03:34:04;;;;;;;19.67;12.70;;;;;;;;;;5071786;28;20191;-76
2023/11/26 03:36:32;;;;;;;19.30;12.70;;;;;;;;;;5071376;28;20257;-76
2023/11/26 03:38:59;;;;;;;20.57;13.33;;;;;;;;;;5070890;28;20234;-82
2023/11/26 03:41:26;;;;;;;17.20;12.10;;;;;;;;;;5071113;28;20195;-76
2023/11/26 03:43:54;;;;;;;20.40;12.03;;;;;;;;;;5071148;28;20290;-77
2023/11/26 03:46:21;;;;;;;20.10;12.67;;;;;;;;;;5070196;28;20199;-77
2023/11/26 03:48:49;;;;;;;19.43;12.70;;;;;;;;;;5057902;28;20290;-77
2023/11/26 03:51:18;;;;;;;20.17;12.30;;;;;;;;;;5071021;28;20615;-76
2023/11/26 03:53:45;;;;;;;20.20;12.47;;;;;;;;;;5071110;28;20227;-76
2023/11/26 03:56:13;;;;;;;17.63;12.70;;;;;;;;;;5071363;28;20226;-76
2023/11/26 03:58:40;;;;;;;19.13;11.80;;;;;;;;;;5071382;28;20195;-76
2023/11/26 04:01:08;;;;;;;18.00;12.67;;;;;;;;;;5070824;28;20259;-77
2023/11/26 04:03:35;;;;;;;19.00;12.03;;;;;;;;;;5071014;28;20560;-78
2023/11/26 04:06:02;;;;;;;19.63;12.60;;;;;;;;;;5071321;28;20281;-76
2023/11/26 04:08:31;;;;;;;18.93;12.30;;;;;;;;;;5070475;28;20202;-77
2023/11/26 04:10:58;;;;;;;16.83;11.37;;;;;;;;;;5070847;28;20199;-76
2023/11/26 04:13:27;;;;;;;17.47;11.70;;;;;;;;;;5071110;28;20242;-75
2023/11/26 04:15:57;;;;;;;20.37;11.77;;;;;;;;;;5070913;28;20232;-76
2023/11/26 04:18:25;;;;;;;15.50;10.57;;;;;;;;;;5071253;28;20235;-76
2023/11/26 04:20:52;;;;;;;16.97;10.90;;;;;;;;;;5071178;28;20199;-77
2023/11/26 04:23:19;;;;;;;15.33;10.87;;;;;;;;;;5070406;28;20199;-77
2023/11/26 04:25:48;;;;;;;15.50;10.53;;;;;;;;;;5070546;28;20354;-77
2023/11/26 04:28:15;;;;;;;15.50;10.83;;;;;;;;;;5070751;28;20197;-76
2023/11/26 04:30:43;;;;;;;18.63;10.77;;;;;;;;;;5071040;28;20206;-77
2023/11/26 04:33:10;;;;;;;15.20;10.03;;;;;;;;;;5071012;28;20206;-77
2023/11/26 04:35:38;;;;;;;16.10;11.13;;;;;;;;;;5070779;28;20268;-77
2023/11/26 04:38:05;;;;;;;17.47;10.37;;;;;;;;;;5070425;28;20655;-76
2023/11/26 04:40:32;;;;;;;15.83;10.97;;;;;;;;;;5070763;28;20252;-77
2023/11/26 04:43:01;;;;;;;14.20;11.00;;;;;;;;;;5070203;28;20219;-74
2023/11/26 04:45:28;;;;;;;20.17;11.60;;;;;;;;;;5070200;28;20191;-77
2023/11/26 04:47:55;;;;;;;15.30;11.17;;;;;;;;;;5070674;28;20187;-76
2023/11/26 04:50:22;;;;;;;14.77;11.13;;;;;;;;;;5070355;28;20209;-77
2023/11/26 04:52:50;;;;;;;17.87;11.03;;;;;;;;;;5070380;28;20687;-77
2023/11/26 04:55:19;;;;;;;15.30;10.77;;;;;;;;;;5070419;28;20227;-76
2023/11/26 04:57:46;;;;;;;15.53;10.47;;;;;;;;;;5070821;28;20195;-76
2023/11/26 05:00:16;;;;;;;15.57;11.10;;;;;;;;;;5070292;28;20680;-77
2023/11/26 05:02:44;;;;;;;13.80;10.63;;;;;;;;;;5070634;28;20257;-76
2023/11/26 05:05:11;;;;;;;14.77;11.13;;;;;;;;;;5070531;28;20241;-76
2023/11/26 05:07:39;;;;;;;17.03;11.00;;;;;;;;;;5070541;28;20187;-78
2023/11/26 05:10:07;;;;;;;18.07;11.33;;;;;;;;;;5074142;28;20766;-77
2023/11/26 05:12:34;;;;;;;17.37;10.90;;;;;;;;;;5073835;28;20198;-77
2023/11/26 05:15:01;;;;;;;18.17;10.80;;;;;;;;;;5074532;28;20225;-75
2023/11/26 05:17:30;;;;;;;16.10;11.03;;;;;;;;;;5073894;28;20671;-77
2023/11/26 05:19:57;;;;;;;18.53;11.03;;;;;;;;;;5074156;28;20248;-77
2023/11/26 05:22:24;;;;;;;17.20;11.30;;;;;;;;;;5073548;28;20274;-75
2023/11/26 05:24:51;;;;;;;15.30;10.40;;;;;;;;;;5065757;28;20233;-76
2023/11/26 05:27:21;;;;;;;18.47;10.97;;;;;;;;;;5073952;28;20206;-77
2023/11/26 05:29:48;;;;;;;16.40;11.50;;;;;;;;;;5074249;28;20234;-76
2023/11/26 05:32:16;;;;;;;16.73;11.50;;;;;;;;;;5073903;28;20290;-77
2023/11/26 05:34:44;;;;;;;16.30;11.60;;;;;;;;;;5073984;28;20222;-82
2023/11/26 05:37:12;;;;;;;16.70;11.00;;;;;;;;;;5072972;28;20199;-83
2023/11/26 05:39:40;;;;;;;18.03;11.60;;;;;;;;;;5073794;28;20199;-83
2023/11/26 05:42:07;;;;;;;17.73;11.40;;;;;;;;;;5073812;28;20199;-83
2023/11/26 05:44:34;;;;;;;15.20;11.37;;;;;;;;;;5073813;28;20679;-83
2023/11/26 05:47:02;;;;;;;14.67;10.90;;;;;;;;;;5073429;28;20225;-84
2023/11/26 05:49:29;;;;;;;15.63;10.37;;;;;;;;;;5073408;28;20241;-81
2023/11/26 05:51:59;;;;;;;16.90;11.90;;;;;;;;;;5073150;28;20286;-84
2023/11/26 05:54:28;;;;;;;15.47;10.40;;;;;;;;;;5073273;28;20694;-80
2023/11/26 05:56:55;;;;;;;15.43;11.00;;;;;;;;;;5073432;28;20685;-83
2023/11/26 05:59:22;;;;;;;14.27;10.20;;;;;;;;;;5073561;28;20235;-83
2023/11/26 06:01:49;;;;;;;19.43;10.67;;;;;;;;;;5073205;28;20289;-83
2023/11/26 06:04:17;;;;;;;16.87;10.60;;;;;;;;;;5072629;28;20282;-83
2023/11/26 06:06:44;;;;;;;17.37;10.80;;;;;;;;;;5072767;28;20609;-84
2023/11/26 06:09:12;;;;;;;18.27;11.57;;;;;;;;;;5073317;28;20279;-82
2023/11/26 06:11:40;;;;;;;14.00;10.60;;;;;;;;;;5072911;28;20196;-83
2023/11/26 06:14:07;;;;;;;17.97;11.23;;;;;;;;;;5073057;28;20201;-83
2023/11/26 06:16:34;;;;;;;15.93;11.27;;;;;;;;;;5072950;28;20262;-83
2023/11/26 06:19:02;;;;;;;15.00;11.37;;;;;;;;;;5072521;28;20200;-83
2023/11/26 06:21:29;;;;;;;14.47;10.83;;;;;;;;;;5072393;28;20209;-83
2023/11/26 06:23:57;;;;;;;15.30;10.97;;;;;;;;;;5072740;28;20894;-84
2023/11/26 06:26:26;;;;;;;14.40;10.80;;;;;;;;;;5072558;28;20254;-84
2023/11/26 06:28:53;;;;;;;16.80;10.70;;;;;;;;;;5072203;28;20236;-84
2023/11/26 06:31:21;;;;;;;13.80;10.40;;;;;;;;;;5073026;28;20750;-83
2023/11/26 06:33:48;;;;;;;19.23;10.60;;;;;;;;;;5054499;28;20683;-84
2023/11/26 06:36:19;;;;;;;15.67;10.27;;;;;;;;;;5072693;28;20259;-83
2023/11/26 06:38:46;;;;;;;16.23;10.87;;;;;;;;;;5072502;28;20290;-83
2023/11/26 06:41:21;;;;;;;17.20;10.47;;;;;;;;;;5072597;28;20203;-83
2023/11/26 06:43:50;;;;;;;15.57;10.47;;;;;;;;;;5072607;28;20201;-82
2023/11/26 06:46:18;;;;;;;15.83;9.67;;;;;;;;;;5072483;28;20643;-82
2023/11/26 06:48:45;;;;;;;14.00;9.80;;;;;;;;;;5054190;28;20563;-82
2023/11/26 06:51:13;;;;;;;15.13;9.83;;;;;;;;;;5071930;28;20683;-82
2023/11/26 06:53:40;;;;;;;13.17;9.60;;;;;;;;;;5072257;28;20194;-83
2023/11/26 06:56:07;;;;;;;14.10;9.40;;;;;;;;;;5071830;28;20241;-83
2023/11/26 06:58:37;;;;;;;16.37;9.67;;;;;;;;;;5072497;28;20240;-84
2023/11/26 07:01:06;;;;;;;13.73;10.07;;;;;;;;;;5071592;28;20235;-83
2023/11/26 07:03:34;;;;;;;13.57;9.23;;;;;;;;;;5071158;28;20740;-82
2023/11/26 07:06:01;;;;;;;15.57;10.00;;;;;;;;;;5072233;28;20199;-83
2023/11/26 07:08:30;;;;;;;15.67;10.13;;;;;;;;;;5072117;28;20201;-82
2023/11/26 07:10:58;;;;;;;16.57;10.13;;;;;;;;;;5071769;28;20202;-83
2023/11/26 07:13:26;;;;;;;14.87;9.80;;;;;;;;;;5071696;28;20671;-81
2023/11/26 07:15:53;;;;;;;16.97;9.37;;;;;;;;;;5053877;28;20727;-83
2023/11/26 07:18:23;;;;;;;15.20;9.73;;;;;;;;;;5071953;28;20229;-83
2023/11/26 07:20:51;;;;;;;12.23;9.17;;;;;;;;;;5072119;28;20290;-83
2023/11/26 07:23:18;;;;;;;14.33;9.47;;;;;;;;;;5071675;28;20197;-83
2023/11/26 07:25:45;;;;;;;15.57;9.90;;;;;;;;;;5071654;28;20203;-83
2023/11/26 07:28:13;;;;;;;14.57;9.67;;;;;;;;;;5071744;28;20207;-82
2023/11/26 07:30:41;;;;;;;16.20;10.17;;;;;;;;;;5071579;28;20202;-83
2023/11/26 07:33:08;;;;;;;15.80;9.50;;;;;;;;;;5071894;28;20237;-83
2023/11/26 07:35:37;;;;;;;15.53;9.60;;;;;;;;;;5071573;28;20248;-83
2023/11/26 07:38:04;;;;;;;13.00;9.13;;;;;;;;;;5072091;28;20199;-83
2023/11/26 07:40:31;;;;;;;16.03;10.10;;;;;;;;;;5071551;28;20298;-83
2023/11/26 07:42:59;;;;;;;16.60;9.77;;;;;;;;;;5057458;28;20298;-83
2023/11/26 07:45:26;;;;;;;18.70;10.00;;;;;;;;;;5067173;28;20688;-82
2023/11/26 07:47:53;;;;;;;15.93;9.80;;;;;;;;;;5056840;28;20287;-83
2023/11/26 07:50:20;;;;;;;14.03;9.60;;;;;;;;;;5070857;28;20237;-82
2023/11/26 07:52:50;;;;;;;14.33;9.63;;;;;;;;;;5071162;28;20202;-83
2023/11/26 07:55:17;;;;;;;15.73;9.60;;;;;;;;;;5070774;28;20309;-83
2023/11/26 07:57:45;;;;;;;14.67;9.90;;;;;;;;;;5071513;28;20274;-84
2023/11/26 08:00:14;;;;;;;14.93;9.33;;;;;;;;;;5070565;28;20264;-83
2023/11/26 08:02:41;;;;;;;16.03;8.93;;;;;;;;;;5070736;28;20198;-82
2023/11/26 08:05:10;;;;;;;14.10;8.57;;;;;;;;;;5070988;28;20257;-84
2023/11/26 08:07:38;;;;;;;12.97;8.73;;;;;;;;;;5071513;28;20243;-82
2023/11/26 08:10:18;;;;;;;15.53;9.43;;;;;;;;;;5070862;28;20197;-83
2023/11/26 08:12:45;;;;;;;17.47;9.80;;;;;;;;;;5071070;28;20205;-84
2023/11/26 08:15:16;;;;;;;14.70;8.97;;;;;;;;;;5070770;28;20244;-83
2023/11/26 08:17:48;;;;;;;16.03;9.43;;;;;;;;;;5070574;28;20198;-84
2023/11/26 08:20:15;;;;;;;16.87;9.33;;;;;;;;;;5070180;28;20199;-84
2023/11/26 08:22:46;;;;;;;11.83;9.00;;;;;;;;;;5070772;28;20195;-82
2023/11/26 08:25:18;;;;;;;14.13;8.87;;;;;;;;;;5070585;28;20211;-81
2023/11/26 08:27:48;;;;;;;15.47;9.93;;;;;;;;;;5067777;28;20194;-80
2023/11/26 08:30:30;;;;;;;16.20;9.33;;;;;;;;;;5063259;28;20197;-81
2023/11/26 08:32:58;;;;;;;11.47;8.93;;;;;;;;;;5055744;28;20236;-82
2023/11/26 08:35:26;;;;;;;15.33;9.90;;;;;;;;;;5067685;28;20218;-82
2023/11/26 08:37:53;;;;;;;21.30;12.33;;;;;;;;;;5050187;28;20233;-81
2023/11/26 08:40:22;;;;;;;29.47;15.87;;;;;;;;;;5050361;28;20208;-81
2023/11/26 08:42:54;;;;;;;24.00;14.37;;;;;;;;;;5051132;28;20252;-81
2023/11/26 08:45:21;;;;;;;19.40;11.73;;;;;;;;;;5053862;28;20218;-81
2023/11/26 08:47:48;;;;;;;14.57;9.80;;;;;;;;;;5054481;28;20294;-81
2023/11/26 08:50:16;;;;;;;13.97;9.73;;;;;;;;;;5053842;28;20203;-81
2023/11/26 08:52:43;;;;;;;14.43;9.50;;;;;;;;;;5054188;28;20203;-81
2023/11/26 08:55:11;;;;;;;14.33;8.83;;;;;;;;;;5054415;28;20210;-82
2023/11/26 08:57:41;;;;;;;14.30;9.70;;;;;;;;;;5054200;28;20234;-81
2023/11/26 09:00:09;;;;;;;14.27;10.20;;;;;;;;;;5065052;28;20395;-81
2023/11/26 09:02:37;;;;;;;14.23;10.23;;;;;;;;;;5073512;28;20294;-81
2023/11/26 09:05:07;;;;;;;15.77;9.90;;;;;;;;;;5074382;28;20191;-81
2023/11/26 09:07:35;;;;;;;13.90;10.03;;;;;;;;;;5073963;28;20199;-81
2023/11/26 09:10:03;;;;;;;16.83;11.03;;;;;;;;;;5072636;28;20714;-79
2023/11/26 09:12:30;;;;;;;19.27;12.23;;;;;;;;;;4716732;28;10000131;-83
2023/11/26 09:14:59;;;;;;;18.70;10.93;;;;;;;;;;5061873;28;20207;-82
2023/11/26 09:17:27;;;;;;;16.27;10.20;;;;;;;;;;5063206;28;20612;-82
2023/11/26 09:19:55;;;;;;;15.97;10.40;;;;;;;;;;5070710;28;20210;-83
2023/11/26 09:22:22;;;;;;;17.33;11.13;;;;;;;;;;5070340;28;20200;-83
2023/11/26 09:24:49;;;;;;;16.60;11.40;;;;;;;;;;5068720;28;20291;-83
2023/11/26 09:27:17;;;;;;;16.13;10.87;;;;;;;;;;5070593;28;20692;-82
2023/11/26 09:29:44;;;;;;;13.73;9.97;;;;;;;;;;5052655;28;20195;-82
2023/11/26 09:32:13;;;;;;;17.70;10.80;;;;;;;;;;5069067;28;20653;-82
2023/11/26 09:34:41;;;;;;;19.13;10.77;;;;;;;;;;5070194;28;20205;-83
2023/11/26 09:37:08;;;;;;;16.83;10.17;;;;;;;;;;5072159;28;20315;-82
2023/11/26 09:39:36;;;;;;;15.87;10.93;;;;;;;;;;5054710;28;20206;-83
2023/11/26 09:42:03;;;;;;;17.20;10.90;;;;;;;;;;5071585;28;20236;-82
2023/11/26 09:44:31;;;;;;;17.67;10.10;;;;;;;;;;5072285;28;20238;-80
2023/11/26 09:46:58;;;;;;;17.27;9.90;;;;;;;;;;5072736;28;20205;-81
2023/11/26 09:49:27;;;;;;;15.63;9.77;;;;;;;;;;5085084;28;20204;-82
2023/11/26 09:51:57;;;;;;;14.80;10.23;;;;;;;;;;5075998;28;20293;-82
2023/11/26 09:54:24;;;;;;;17.80;10.00;;;;;;;;;;5073711;28;20194;-81
2023/11/26 09:56:55;;;;;;;17.93;10.33;;;;;;;;;;5069697;28;20223;-80
2023/11/26 09:59:26;;;;;;;15.63;10.43;;;;;;;;;;5060381;28;20257;-81
2023/11/26 10:01:53;;;;;;;17.37;10.77;;;;;;;;;;5051054;28;20295;-81
2023/11/26 10:04:21;;;;;;;15.60;9.97;;;;;;;;;;5060172;28;20293;-81
2023/11/26 10:06:52;;;;;;;17.80;10.10;;;;;;;;;;5070636;28;20593;-81
2023/11/26 10:09:20;;;;;;;18.13;9.87;;;;;;;;;;5063516;28;20804;-81
2023/11/26 10:11:47;;;;;;;14.63;8.97;;;;;;;;;;5065189;28;20205;-81
2023/11/26 10:14:15;;;;;;;15.80;8.80;;;;;;;;;;5073049;28;20681;-80
2023/11/26 10:16:43;;;;;;;17.40;9.30;;;;;;;;;;5072175;28;20226;-79
2023/11/26 10:19:22;;;;;;;17.27;8.70;;;;;;;;;;5061278;28;20236;-84
2023/11/26 10:21:53;;;;;;;13.83;8.50;;;;;;;;;;5062320;28;20221;-83
2023/11/26 10:24:22;;;;;;;15.43;8.60;;;;;;;;;;5068052;28;20718;-83
2023/11/26 10:26:51;;;;;;;13.00;8.33;;;;;;;;;;5066270;28;20675;-81
2023/11/26 10:29:20;;;;;;;11.07;7.87;;;;;;;;;;5066389;28;20229;-83
2023/11/26 10:32:03;;;;;;;14.43;7.93;;;;;;;;;;5038081;28;20668;-83
2023/11/26 10:34:33;;;;;;;13.40;8.17;;;;;;;;;;5045817;28;20210;-83
2023/11/26 10:37:01;;;;;;;13.17;7.87;;;;;;;;;;5060650;28;20288;-82
2023/11/26 10:39:30;;;;;;;11.30;7.17;;;;;;;;;;5052634;28;20312;-82
2023/11/26 10:42:00;;;;;;;10.03;7.20;;;;;;;;;;5067034;28;20268;-83
2023/11/26 10:44:29;;;;;;;13.90;6.57;;;;;;;;;;5063878;28;20625;-82
2023/11/26 10:47:00;;;;;;;12.60;6.80;;;;;;;;;;5068888;28;20209;-83
2023/11/26 10:49:31;;;;;;;13.67;6.83;;;;;;;;;;5067478;28;20221;-83
2023/11/26 10:52:09;;;;;;;12.37;6.83;;;;;;;;;;5067450;28;20286;-82
2023/11/26 10:54:40;;;;;;;11.77;6.30;;;;;;;;;;5052887;28;20222;-84
2023/11/26 10:57:09;;;;;;;12.57;7.40;;;;;;;;;;5066352;28;20784;-85
2023/11/26 10:59:38;;;;;;;10.90;7.33;;;;;;;;;;5078279;28;20252;-84
2023/11/26 11:02:06;;;;;;;12.17;6.73;;;;;;;;;;5081965;28;20231;-84
2023/11/26 11:04:35;;;;;;;9.13;5.83;;;;;;;;;;5071737;28;20294;-85
2023/11/26 11:07:04;;;;;;;10.23;6.20;;;;;;;;;;5076359;28;20210;-82
2023/11/26 11:09:36;;;;;;;14.53;6.73;;;;;;;;;;5065187;28;20305;-82
2023/11/26 11:12:06;;;;;;;10.90;5.53;;;;;;;;;;5059481;28;20624;-83
2023/11/26 11:14:34;;;;;;;9.83;5.47;;;;;;;;;;5070925;28;20282;-83
2023/11/26 11:17:01;;;;;;;9.40;4.83;;;;;;;;;;5065394;28;20254;-81
2023/11/26 11:19:46;;;;;;;9.43;4.73;;;;;;;;;;5059025;28;20261;-82
2023/11/26 11:22:15;;;;;;;7.80;4.57;;;;;;;;;;5064361;28;20245;-81
2023/11/26 11:24:43;;;;;;;8.03;4.13;;;;;;;;;;5048400;28;20249;-81
2023/11/26 11:27:11;;;;;;;8.00;3.83;;;;;;;;;;5059301;28;20195;-82
2023/11/26 11:29:38;;;;;;;9.60;4.63;;;;;;;;;;5070525;28;20206;-79
2023/11/26 11:32:05;;;;;;;9.80;4.17;;;;;;;;;;5071369;28;20282;-79
2023/11/26 11:34:33;;;;;;;7.10;4.00;;;;;;;;;;5067633;28;20676;-80
2023/11/26 11:37:03;;;;;;;9.10;4.50;;;;;;;;;;4711681;28;9999755;-82
2023/11/26 11:39:46;;;;;;;9.20;3.93;;;;;;;;;;5070785;28;20194;-82
2023/11/26 11:42:21;;;;;;;9.97;4.87;;;;;;;;;;5067056;28;20203;-80
2023/11/26 11:44:51;;;;;;;10.07;4.63;;;;;;;;;;5058240;28;20203;-82
2023/11/26 11:47:37;;;;;;;10.07;4.13;;;;;;;;;;5063891;28;20200;-80
2023/11/26 11:50:08;;;;;;;7.93;4.30;;;;;;;;;;5065283;28;20218;-81
2023/11/26 11:52:35;;;;;;;7.53;4.17;;;;;;;;;;5065985;28;20305;-80
2023/11/26 11:55:23;;;;;;;9.70;4.60;;;;;;;;;;5053656;28;20287;-80
2023/11/26 11:57:52;;;;;;;9.70;4.93;;;;;;;;;;5058599;28;20249;-81
2023/11/26 12:00:21;;;;;;;10.53;5.27;;;;;;;;;;5065710;28;20223;-81
2023/11/26 12:02:52;;;;;;;9.63;5.20;;;;;;;;;;5067564;28;20209;-79
2023/11/26 12:05:24;;;;;;;11.43;5.20;;;;;;;;;;5067173;28;20196;-82
2023/11/26 12:07:52;;;;;;;12.20;4.90;;;;;;;;;;5061167;28;20312;-81
2023/11/26 12:10:22;;;;;;;10.90;4.07;;;;;;;;;;5059944;28;20676;-80
2023/11/26 12:13:01;;;;;;;11.93;3.80;;;;;;;;;;5056766;28;20253;-81
2023/11/26 12:15:29;;;;;;;12.77;3.53;;;;;;;;;;5048962;28;20212;-82
2023/11/26 12:17:57;;;;;;;8.90;3.60;;;;;;;;;;5078046;28;20882;-82
2023/11/26 12:20:24;;;;;;;8.57;3.60;;;;;;;;;;5067464;28;20750;-82
2023/11/26 12:22:51;;;;;;;9.07;3.77;;;;;;;;;;5058009;28;21074;-82
2023/11/26 12:25:21;;;;;;;8.93;4.17;;;;;;;;;;5061524;28;20238;-82
2023/11/26 12:27:49;;;;;;;6.13;3.20;;;;;;;;;;5058742;28;20286;-82
2023/11/26 12:30:20;;;;;;;7.07;3.57;;;;;;;;;;5071735;28;20293;-83
2023/11/26 12:32:47;;;;;;;8.00;3.20;;;;;;;;;;5051827;28;20260;-82
2023/11/26 12:35:15;;;;;;;8.13;3.70;;;;;;;;;;5058106;28;20719;-81
2023/11/26 12:37:43;;;;;;;8.07;3.57;;;;;;;;;;5056231;28;20273;-82
2023/11/26 12:40:11;;;;;;;9.33;3.43;;;;;;;;;;5075894;28;20211;-82
2023/11/26 12:42:41;;;;;;;8.90;3.87;;;;;;;;;;5078104;28;20207;-82
2023/11/26 12:45:10;;;;;;;10.27;4.73;;;;;;;;;;5083049;28;20210;-81
2023/11/26 12:47:50;;;;;;;9.30;3.77;;;;;;;;;;5078144;28;20290;-82
2023/11/26 12:50:17;;;;;;;7.07;3.70;;;;;;;;;;5070959;28;20283;-82
2023/11/26 12:52:45;;;;;;;9.83;4.00;;;;;;;;;;5070660;28;20239;-81
2023/11/26 12:55:12;;;;;;;7.77;4.20;;;;;;;;;;5066333;28;20966;-82
2023/11/26 12:57:40;;;;;;;9.03;4.30;;;;;;;;;;5056134;28;20322;-81
2023/11/26 13:00:10;;;;;;;11.33;5.20;;;;;;;;;;5068799;28;20314;-82
2023/11/26 13:02:38;;;;;;;11.30;5.50;;;;;;;;;;5069177;28;20199;-80
2023/11/26 13:05:20;;;;;;;16.57;6.40;;;;;;;;;;5072689;28;20741;-81
2023/11/26 13:07:48;;;;;;;11.27;5.70;;;;;;;;;;5068033;28;20203;-80
2023/11/26 13:10:15;;;;;;;12.10;5.60;;;;;;;;;;5059504;28;20226;-80
2023/11/26 13:12:54;;;;;;;8.40;4.40;;;;;;;;;;5061190;28;20272;-81
2023/11/26 13:15:21;;;;;;;9.63;4.17;;;;;;;;;;5063191;28;20219;-79
2023/11/26 13:17:48;;;;;;;8.10;3.83;;;;;;;;;;5057249;28;20231;-80
2023/11/26 13:20:22;;;;;;;9.80;3.93;;;;;;;;;;5064989;28;20598;-82
2023/11/26 13:22:54;;;;;;;7.23;3.27;;;;;;;;;;5063437;28;20221;-82
2023/11/26 13:25:21;;;;;;;7.70;4.10;;;;;;;;;;5057838;28;20281;-81
2023/11/26 13:27:49;;;;;;;8.60;3.80;;;;;;;;;;5068147;28;20633;-82
2023/11/26 13:30:16;;;;;;;5.87;3.67;;;;;;;;;;5051034;28;20682;-81
2023/11/26 13:32:46;;;;;;;6.90;2.90;;;;;;;;;;5056864;28;20214;-81
2023/11/26 13:35:28;;;;;;;7.97;4.17;;;;;;;;;;5068964;28;20286;-83
2023/11/26 13:37:57;;;;;;;12.07;3.83;;;;;;;;;;5061797;28;20321;-81
2023/11/26 13:40:24;;;;;;;8.47;3.67;;;;;;;;;;5063365;28;20722;-82
2023/11/26 13:42:51;;;;;;;10.40;3.53;;;;;;;;;;5060987;28;20668;-82
2023/11/26 13:45:24;;;;;;;9.00;3.50;;;;;;;;;;5066786;28;20206;-84
2023/11/26 13:47:51;;;;;;;8.40;3.37;;;;;;;;;;5065335;28;20220;-83
2023/11/26 13:50:18;;;;;;;6.90;3.70;;;;;;;;;;5060751;28;20851;-81
2023/11/26 13:52:46;;;;;;;6.80;3.90;;;;;;;;;;5069870;28;20282;-82
2023/11/26 13:55:24;;;;;;;;;;;;;;;;;;;;;
2023/11/26 13:57:52;;;;;;;7.07;3.70;;;;;;;;;;5064172;28;20253;-83
2023/11/26 14:00:21;;;;;;;7.27;3.90;;;;;;;;;;5065008;28;20227;-82
2023/11/26 14:02:49;;;;;;;7.57;3.80;;;;;;;;;;5064552;28;20690;-83
2023/11/26 14:05:16;;;;;;;9.70;4.80;;;;;;;;;;5066388;28;20625;-81
2023/11/26 14:07:44;;;;;;;10.47;4.20;;;;;;;;;;5067889;28;20199;-82
2023/11/26 14:10:14;;;;;;;11.87;4.30;;;;;;;;;;5068281;28;20191;-83
2023/11/26 14:12:59;;;;;;;6.03;3.77;;;;;;;;;;5063432;28;20260;-83
2023/11/26 14:15:26;;;;;;;9.47;4.13;;;;;;;;;;5055085;28;20234;-82
2023/11/26 14:17:53;;;;;;;9.47;4.67;;;;;;;;;;5066091;28;20219;-83
2023/11/26 14:20:21;;;;;;;10.30;4.17;;;;;;;;;;5068048;28;20261;-84
2023/11/26 14:22:49;;;;;;;8.30;4.17;;;;;;;;;;5064623;28;20261;-82
2023/11/26 14:25:17;;;;;;;12.20;4.57;;;;;;;;;;5053225;28;20203;-81
2023/11/26 14:27:44;;;;;;;7.83;4.03;;;;;;;;;;5061246;28;20252;-82
2023/11/26 14:30:17;;;;;;;7.27;4.00;;;;;;;;;;5062794;28;20616;-83
2023/11/26 14:32:44;;;;;;;9.03;4.10;;;;;;;;;;5055737;28;20652;-82
2023/11/26 14:35:13;;;;;;;8.17;4.77;;;;;;;;;;5064888;28;21025;-82
2023/11/26 14:37:40;;;;;;;9.13;4.87;;;;;;;;;;5065997;28;20589;-80